Time;durP1;ratioP1;P1;durP2;ratioP2;P2;SDS_P1;SDS_P2;PMS_P1;PMS_P2;Temp;Humidity;BMP_temperature;BMP_pressure;BME280_temperature;BME280_humidity;BME280_pressure;Samples;Min_cycle;Max_cycle;Signal;HPM_P1;HPM_P2
2022/11/08 00:01:57;;;;;;;10.43;2.70;;;;;;;13.40;76.72;100733.19;3581013;40;20665;-62
2022/11/08 00:04:24;;;;;;;8.00;2.38;;;;;;;13.33;77.02;100738.19;3581251;40;20048;-62
2022/11/08 00:15:05;;;;;;;10.15;2.25;;;;;;;13.19;77.42;100731.09;3581421;40;20349;-61
2022/11/08 00:17:31;;;;;;;7.63;2.53;;;;;;;13.14;77.66;100733.28;3582718;40;20063;-61
2022/11/08 00:19:57;;;;;;;7.47;2.55;;;;;;;13.06;77.82;100714.06;3581657;40;20056;-61
2022/11/08 00:22:23;;;;;;;9.45;2.58;;;;;;;13.07;77.86;100721.22;3580143;40;20079;-60
2022/11/08 00:24:50;;;;;;;7.53;2.42;;;;;;;13.06;78.10;100724.88;3579176;40;20446;-60
2022/11/08 00:27:23;;;;;;;7.38;3.45;;;;;;;13.06;78.06;100724.88;3581144;40;20051;-60
2022/11/08 00:29:49;;;;;;;8.82;2.58;;;;;;;13.03;77.94;100725.09;3580578;40;20326;-60
2022/11/08 00:32:20;;;;;;;8.95;2.97;;;;;;;13.01;78.23;100721.66;3581593;40;20054;-60
2022/11/08 00:34:47;;;;;;;7.80;2.65;;;;;;;12.97;78.10;100720.16;3581275;40;20322;-60
2022/11/08 00:37:14;;;;;;;5.80;2.33;;;;;;;12.92;78.29;100717.81;3580062;40;20047;-61
2022/11/08 00:39:40;;;;;;;10.25;3.22;;;;;;;12.92;78.73;100719.63;3581912;40;20048;-60
2022/11/08 00:42:06;;;;;;;6.88;2.20;;;;;;;12.88;79.21;100718.16;3582760;40;20121;-61
2022/11/08 00:44:32;;;;;;;9.57;2.63;;;;;;;12.89;78.70;100718.03;3581638;40;20395;-61
2022/11/08 00:46:58;;;;;;;7.97;2.05;;;;;;;12.88;78.92;100718.16;3579267;40;20324;-60
2022/11/08 00:49:23;;;;;;;7.80;2.80;;;;;;;12.88;78.61;100715.44;3580194;40;20333;-61
2022/11/08 00:51:49;;;;;;;7.32;2.55;;;;;;;12.85;78.87;100715.69;3577693;40;20072;-61
2022/11/08 00:54:19;;;;;;;4.47;2.22;;;;;;;12.85;79.07;100707.59;3581191;40;20057;-61
2022/11/08 00:56:47;;;;;;;7.85;2.25;;;;;;;12.85;78.95;100710.28;3579970;40;20427;-61
2022/11/08 00:59:15;;;;;;;7.85;2.47;;;;;;;12.84;79.28;100708.53;3581584;40;20311;-61
2022/11/08 01:01:42;;;;;;;6.90;2.45;;;;;;;12.82;78.98;100705.13;3581073;40;20064;-61
2022/11/08 01:04:12;;;;;;;8.18;2.83;;;;;;;12.80;79.22;100702.50;3580558;40;20100;-61
2022/11/08 01:06:38;;;;;;;7.10;2.15;;;;;;;12.80;79.42;100698.94;3580095;40;20311;-62
2022/11/08 01:09:06;;;;;;;8.35;2.42;;;;;;;12.78;78.68;100699.94;3581883;40;20060;-61
2022/11/08 01:11:32;;;;;;;5.95;2.33;;;;;;;12.71;79.30;100693.25;3581762;40;20045;-61
2022/11/08 01:14:00;;;;;;;7.10;2.10;;;;;;;12.73;79.35;100695.84;3580662;40;20104;-61
2022/11/08 01:16:30;;;;;;;6.10;2.15;;;;;;;12.73;79.52;100695.84;3579689;40;20313;-61
2022/11/08 01:19:00;;;;;;;9.15;2.50;;;;;;;12.73;79.33;100693.16;3575536;40;20049;-61
2022/11/08 01:21:27;;;;;;;7.32;2.20;;;;;;;12.72;79.47;100695.00;3577340;40;20110;-62
2022/11/08 01:23:53;;;;;;;7.43;2.45;;;;;;;12.68;79.72;100693.47;3580053;40;20434;-62
2022/11/08 01:26:24;;;;;;;11.48;2.42;;;;;;;12.70;79.41;100685.28;3579429;40;20091;-62
2022/11/08 01:28:50;;;;;;;6.60;2.42;;;;;;;12.67;79.67;100686.34;3580069;40;20060;-62
2022/11/08 01:31:21;;;;;;;6.53;2.65;;;;;;;12.60;79.58;100674.31;3582530;40;20149;-61
2022/11/08 01:33:48;;;;;;;7.93;2.42;;;;;;;12.63;79.62;100681.31;3578485;40;20075;-61
2022/11/08 01:36:20;;;;;;;8.23;2.60;;;;;;;12.58;79.69;100675.38;3580086;40;20129;-62
2022/11/08 01:38:46;;;;;;;8.13;2.92;;;;;;;12.56;79.67;100678.22;3579641;40;20053;-61
2022/11/08 01:41:14;;;;;;;9.82;3.00;;;;;;;12.53;79.86;100673.03;3579645;40;20099;-61
2022/11/08 01:43:49;;;;;;;9.27;2.95;;;;;;;12.58;80.19;100670.00;3579594;40;20423;-62
2022/11/08 01:46:18;;;;;;;8.13;3.08;;;;;;;12.56;79.77;100664.72;3579708;40;20060;-61
2022/11/08 01:49:05;;;;;;;9.20;3.10;;;;;;;12.51;80.00;100654.25;3579894;40;20051;-61
2022/11/08 01:52:01;;;;;;;10.32;2.92;;;;;;;12.51;79.96;100653.41;3579351;40;20067;-62
2022/11/08 01:54:48;;;;;;;11.80;3.47;;;;;;;12.49;80.41;100644.56;3580169;40;20052;-61
2022/11/08 01:57:23;;;;;;;9.10;2.78;;;;;;;12.38;80.39;100623.78;3580799;40;20044;-61
2022/11/08 01:59:56;;;;;;;7.63;3.10;;;;;;;12.48;80.13;100634.75;3580241;40;20064;-61
2022/11/08 02:02:22;;;;;;;7.63;2.53;;;;;;;12.47;80.21;100636.59;3581941;40;20052;-61
2022/11/08 02:04:48;;;;;;;6.40;2.35;;;;;;;12.46;80.53;100642.06;3580634;40;20066;-61
2022/11/08 02:07:16;;;;;;;7.50;2.55;;;;;;;12.47;80.25;100635.72;3580364;40;20361;-61
2022/11/08 02:09:46;;;;;;;9.32;2.40;;;;;;;12.47;80.23;100625.81;3577959;40;20048;-61
2022/11/08 02:12:14;;;;;;;6.35;2.67;;;;;;;12.43;80.40;100613.53;3581881;40;20282;-62
2022/11/08 02:14:40;;;;;;;6.95;2.22;;;;;;;12.45;80.77;100626.88;3579362;40;20075;-62
2022/11/08 02:17:08;;;;;;;7.30;2.55;;;;;;;12.47;80.46;100619.56;3580121;40;20391;-61
2022/11/08 02:19:48;;;;;;;6.72;2.55;;;;;;;12.47;80.55;100622.25;3579874;40;20316;-62
2022/11/08 02:22:42;;;;;;;7.63;2.38;;;;;;;12.44;80.30;100617.09;3581964;40;20059;-62
2022/11/08 02:25:08;;;;;;;8.60;2.75;;;;;;;12.44;80.56;100611.69;3579437;40;20064;-61
2022/11/08 02:27:33;;;;;;;8.00;2.55;;;;;;;12.44;80.28;100603.59;3578777;40;20064;-62
2022/11/08 02:29:59;;;;;;;8.10;2.28;;;;;;;12.30;80.25;100583.91;3579014;40;20387;-61
2022/11/08 02:32:24;;;;;;;6.72;1.95;;;;;;;12.44;80.37;100598.22;3577781;40;20056;-61
2022/11/08 02:34:57;;;;;;;6.57;2.00;;;;;;;12.44;80.40;100590.13;3579712;40;20170;-62
2022/11/08 02:37:25;;;;;;;6.90;2.35;;;;;;;12.43;79.74;100588.38;3579983;40;20052;-61
2022/11/08 02:39:51;;;;;;;8.60;2.22;;;;;;;12.41;79.94;100585.81;3580403;40;20462;-62
2022/11/08 02:42:19;;;;;;;7.65;2.00;;;;;;;12.40;80.04;100583.22;3580971;40;20052;-61
2022/11/08 02:44:46;;;;;;;6.22;1.92;;;;;;;12.40;80.19;100585.91;3568119;40;20114;-62
2022/11/08 02:47:11;;;;;;;7.38;2.13;;;;;;;12.40;79.90;100580.53;3580185;40;20110;-62
2022/11/08 02:49:37;;;;;;;4.47;2.05;;;;;;;12.39;79.80;100573.41;3578884;40;20338;-61
2022/11/08 02:52:04;;;;;;;6.10;1.83;;;;;;;12.39;80.02;100576.09;3577583;40;20336;-61
2022/11/08 02:54:30;;;;;;;7.28;2.30;;;;;;;12.39;79.96;100563.50;3579186;40;20060;-61
2022/11/08 02:56:55;;;;;;;6.45;2.05;;;;;;;12.40;79.73;100564.34;3577927;40;20055;-62
2022/11/08 02:59:21;;;;;;;8.63;2.20;;;;;;;12.41;79.82;100555.31;3578118;40;20052;-62
2022/11/08 03:01:46;;;;;;;6.40;1.90;;;;;;;12.41;79.53;100555.31;3580557;40;20056;-61
2022/11/08 03:04:12;;;;;;;6.32;2.25;;;;;;;12.40;79.37;100548.16;3578857;40;20067;-62
2022/11/08 03:06:38;;;;;;;5.45;2.35;;;;;;;12.40;79.51;100545.47;3578477;40;20092;-61
2022/11/08 03:09:04;;;;;;;7.88;2.25;;;;;;;12.40;79.27;100530.19;3581121;40;20052;-61
2022/11/08 03:11:30;;;;;;;4.90;2.03;;;;;;;12.41;79.17;100522.97;3579935;40;20110;-61
2022/11/08 03:13:56;;;;;;;6.97;1.90;;;;;;;12.40;78.94;100532.88;3577800;40;20045;-61
2022/11/08 03:16:21;;;;;;;8.15;2.13;;;;;;;12.39;78.85;100525.75;3580341;40;20114;-63
2022/11/08 03:18:47;;;;;;;7.97;2.47;;;;;;;12.38;79.12;100526.72;3580200;40;20056;-62
2022/11/08 03:21:13;;;;;;;7.53;2.10;;;;;;;12.34;78.54;100522.56;3577911;40;20052;-62
2022/11/08 03:23:38;;;;;;;9.80;2.55;;;;;;;12.20;79.01;100507.38;3578847;40;20123;-64
2022/11/08 03:26:05;;;;;;;6.28;2.38;;;;;;;12.32;78.93;100519.97;3578449;40;20052;-61
2022/11/08 03:28:31;;;;;;;5.95;1.88;;;;;;;12.26;79.32;100519.56;3578726;40;20141;-61
2022/11/08 03:30:56;;;;;;;5.07;2.10;;;;;;;12.30;79.06;100521.03;3578194;40;20330;-61
2022/11/08 03:33:22;;;;;;;6.18;2.10;;;;;;;12.29;78.74;100509.41;3577179;40;20091;-62
2022/11/08 03:35:49;;;;;;;6.78;2.30;;;;;;;12.25;79.31;100501.66;3579621;40;20059;-61
2022/11/08 03:38:15;;;;;;;5.45;2.13;;;;;;;12.24;79.29;100494.53;3578474;40;20088;-61
2022/11/08 03:40:42;;;;;;;4.03;2.10;;;;;;;12.24;79.05;100500.81;3577707;40;20721;-61
2022/11/08 03:43:08;;;;;;;8.25;2.00;;;;;;;12.22;79.01;100491.13;3580380;40;20084;-61
2022/11/08 03:45:33;;;;;;;6.78;2.28;;;;;;;12.19;79.05;100478.72;3580426;40;20068;-62
2022/11/08 03:47:59;;;;;;;5.80;2.05;;;;;;;12.17;78.72;100469.88;3576867;40;20060;-62
2022/11/08 03:50:25;;;;;;;7.03;2.25;;;;;;;12.07;78.98;100455.38;3579039;40;20058;-61
2022/11/08 03:52:54;;;;;;;8.93;2.40;;;;;;;12.12;79.12;100461.31;3580665;40;20055;-61
2022/11/08 03:55:23;;;;;;;6.65;2.50;;;;;;;12.11;79.02;100461.41;3576708;40;20083;-61
2022/11/08 03:57:51;;;;;;;7.07;2.50;;;;;;;12.08;78.82;100452.59;3578127;40;20060;-61
2022/11/08 04:00:22;;;;;;;4.18;1.73;;;;;;;12.09;79.10;100453.44;3576973;40;20533;-60
2022/11/08 04:02:48;;;;;;;6.75;2.30;;;;;;;12.07;78.61;100448.16;3576483;40;20165;-61
2022/11/08 04:05:15;;;;;;;4.20;1.70;;;;;;;12.03;78.33;100443.13;3579175;40;21418;-62
2022/11/08 04:07:41;;;;;;;6.35;2.38;;;;;;;12.07;78.47;100450.00;3580450;40;20353;-61
2022/11/08 04:10:09;;;;;;;6.55;2.45;;;;;;;11.89;78.59;100413.63;3579314;40;20056;-61
2022/11/08 04:15:27;;;;;;;8.73;3.00;;;;;;;12.02;78.37;100433.28;3578420;40;20110;-61
2022/11/08 04:23:32;;;;;;;12.27;3.60;;;;;;;12.00;78.15;100419.09;3578529;40;20389;-61
2022/11/08 04:26:06;;;;;;;8.13;3.17;;;;;;;11.99;78.08;100414.69;3577643;40;20087;-61
2022/11/08 04:28:35;;;;;;;9.65;3.35;;;;;;;11.99;77.70;100399.38;3575872;40;20068;-62
2022/11/08 04:31:21;;;;;;;8.52;2.90;;;;;;;12.01;77.64;100412.72;3575639;40;20165;-61
2022/11/08 04:33:46;;;;;;;10.02;3.10;;;;;;;12.03;77.53;100402.72;3579439;40;20070;-61
2022/11/08 04:36:15;;;;;;;8.25;2.80;;;;;;;12.02;77.42;100401.84;3575553;40;20342;-62
2022/11/08 04:38:41;;;;;;;6.68;2.80;;;;;;;12.04;76.91;100399.88;3577062;40;20115;-61
2022/11/08 04:41:12;;;;;;;10.93;2.92;;;;;;;12.05;76.65;100387.28;3576460;40;20060;-62
2022/11/08 04:43:39;;;;;;;6.18;2.60;;;;;;;12.06;76.32;100392.56;3578415;40;20280;-61
2022/11/08 04:46:14;;;;;;;10.00;2.60;;;;;;;12.07;76.03;100385.34;3579276;40;20103;-60
2022/11/08 04:48:42;;;;;;;5.43;2.28;;;;;;;12.06;75.93;100389.88;3581371;40;20060;-61
2022/11/08 04:51:15;;;;;;;10.02;2.83;;;;;;;12.06;75.90;100378.22;3577084;40;20459;-61
2022/11/08 04:53:41;;;;;;;8.03;2.40;;;;;;;12.04;75.80;100364.00;3576770;40;20096;-61
2022/11/08 04:56:15;;;;;;;7.55;2.67;;;;;;;12.01;75.74;100361.53;3578299;40;20278;-61
2022/11/08 04:58:48;;;;;;;7.45;2.60;;;;;;;11.98;75.65;100368.03;3578263;40;20053;-61
2022/11/08 05:01:17;;;;;;;11.60;3.10;;;;;;;11.97;75.44;100368.16;3580813;40;20064;-61
2022/11/08 05:03:45;;;;;;;7.57;2.50;;;;;;;11.96;75.24;100366.44;3582256;40;20403;-61
2022/11/08 05:06:19;;;;;;;8.65;2.70;;;;;;;11.95;75.61;100359.31;3578066;40;20056;-61
2022/11/08 05:08:45;;;;;;;7.95;2.53;;;;;;;11.92;75.09;100355.00;3580386;40;20123;-61
2022/11/08 05:11:16;;;;;;;6.25;2.15;;;;;;;11.71;75.07;100327.84;3576759;40;20049;-61
2022/11/08 05:13:42;;;;;;;8.93;2.38;;;;;;;11.90;75.15;100350.72;3577501;40;20045;-61
2022/11/08 05:16:14;;;;;;;7.13;2.72;;;;;;;11.87;74.99;100350.97;3580857;40;20049;-61
2022/11/08 05:18:40;;;;;;;7.13;2.30;;;;;;;11.69;75.09;100337.84;3578608;40;20096;-62
2022/11/08 05:23:50;;;;;;;8.00;2.40;;;;;;;11.79;74.50;100355.03;3579842;40;20087;-62
2022/11/08 05:26:18;;;;;;;7.20;2.60;;;;;;;11.76;74.74;100355.25;3579865;40;20060;-61
2022/11/08 05:28:44;;;;;;;12.25;5.07;;;;;;;11.76;74.97;100347.19;3579156;40;20374;-61
2022/11/08 05:31:10;;;;;;;5.75;2.20;;;;;;;11.76;74.54;100339.09;3577791;40;20056;-61
2022/11/08 05:33:36;;;;;;;6.35;2.40;;;;;;;11.76;74.34;100335.56;3577427;40;20059;-61
2022/11/08 05:36:06;;;;;;;5.28;2.50;;;;;;;11.73;74.36;100333.94;3579683;40;20089;-61
2022/11/08 05:38:32;;;;;;;6.47;2.22;;;;;;;11.76;74.51;100332.88;3579854;40;20061;-61
2022/11/08 05:41:17;;;;;;;8.05;3.35;;;;;;;11.74;74.33;100338.38;3580952;40;20052;-61
2022/11/08 05:43:47;;;;;;;5.90;2.00;;;;;;;11.70;74.15;100328.78;3579659;40;20065;-61
2022/11/08 05:46:14;;;;;;;4.57;2.22;;;;;;;11.76;73.74;100331.03;3579842;40;20100;-61
2022/11/08 05:48:42;;;;;;;7.18;2.53;;;;;;;11.74;73.85;100335.69;3578485;40;20048;-62
2022/11/08 05:51:10;;;;;;;6.57;2.20;;;;;;;11.74;73.53;100335.69;3580335;40;20065;-62
2022/11/08 05:53:37;;;;;;;7.78;2.35;;;;;;;11.73;73.69;100338.47;3578787;40;20055;-61
2022/11/08 05:56:04;;;;;;;6.40;2.45;;;;;;;11.72;73.54;100326.84;3578101;40;20434;-61
2022/11/08 05:58:32;;;;;;;6.97;2.50;;;;;;;11.74;73.66;100335.69;3577576;40;20072;-61
2022/11/08 06:01:05;;;;;;;6.97;2.40;;;;;;;11.74;73.60;100330.31;3578626;40;20059;-62
2022/11/08 06:03:31;;;;;;;6.57;2.42;;;;;;;11.74;73.79;100332.13;3577324;40;20149;-61
2022/11/08 06:06:19;;;;;;;9.02;2.85;;;;;;;11.71;73.33;100327.84;3580066;40;20067;-61
2022/11/08 06:08:45;;;;;;;9.98;3.13;;;;;;;11.73;72.91;100317.78;3578409;40;20308;-61
2022/11/08 06:11:20;;;;;;;5.55;2.45;;;;;;;11.65;73.09;100298.69;3578903;40;20102;-62
2022/11/08 06:13:45;;;;;;;7.28;2.72;;;;;;;11.70;72.95;100318.03;3579452;40;20044;-62
2022/11/08 06:16:15;;;;;;;6.95;2.63;;;;;;;11.71;73.18;100325.16;3579112;40;20060;-61
2022/11/08 06:18:41;;;;;;;5.85;2.78;;;;;;;11.69;73.39;100320.84;3577062;40;20138;-61
2022/11/08 06:21:12;;;;;;;12.93;2.88;;;;;;;11.69;72.86;100321.69;3581430;40;20062;-62
2022/11/08 06:23:38;;;;;;;6.65;2.40;;;;;;;11.68;73.29;100324.53;3572862;40;20122;-62
2022/11/08 06:26:04;;;;;;;7.65;2.75;;;;;;;11.68;73.34;100320.00;3578482;40;20057;-62
2022/11/08 06:28:30;;;;;;;6.70;2.55;;;;;;;11.65;73.45;100314.84;3577104;40;20096;-61
2022/11/08 06:30:59;;;;;;;7.00;2.72;;;;;;;11.65;72.88;100319.38;3578927;40;20088;-61
2022/11/08 06:33:25;;;;;;;9.02;3.17;;;;;;;11.61;73.18;100318.72;3576828;40;20072;-61
2022/11/08 06:35:51;;;;;;;5.53;2.65;;;;;;;11.60;72.78;100320.53;3577652;40;20142;-62
2022/11/08 06:38:17;;;;;;;10.90;2.88;;;;;;;11.63;73.04;100332.91;3577676;40;20048;-61
2022/11/08 06:40:43;;;;;;;8.23;2.80;;;;;;;11.63;72.92;100322.16;3575989;40;20386;-61
2022/11/08 06:43:10;;;;;;;4.45;2.28;;;;;;;11.63;72.84;100325.69;3579630;40;20216;-61
2022/11/08 06:45:37;;;;;;;7.07;2.42;;;;;;;11.62;72.68;100328.53;3578936;40;20045;-61
2022/11/08 06:48:05;;;;;;;9.02;2.78;;;;;;;11.62;72.51;100325.81;3580266;40;20051;-61
2022/11/08 06:50:34;;;;;;;8.15;2.50;;;;;;;11.61;72.93;100324.13;3575268;40;20056;-60
2022/11/08 06:53:06;;;;;;;7.25;2.30;;;;;;;11.61;72.27;100335.75;3577795;40;20056;-61
2022/11/08 06:55:34;;;;;;;6.28;2.88;;;;;;;11.62;72.33;100331.22;3573289;40;20380;-61
2022/11/08 06:58:00;;;;;;;8.60;3.00;;;;;;;11.63;72.54;100328.38;3574023;40;20075;-61
2022/11/08 07:00:27;;;;;;;7.50;2.50;;;;;;;11.64;72.45;100323.88;3575320;40;20076;-61
2022/11/08 07:02:55;;;;;;;5.97;2.42;;;;;;;11.53;72.02;100304.97;3576260;40;20052;-61
2022/11/08 07:05:22;;;;;;;6.35;2.35;;;;;;;11.66;72.42;100335.38;3576365;40;20052;-61
2022/11/08 07:07:50;;;;;;;4.38;2.30;;;;;;;11.65;71.95;100336.38;3576182;40;20122;-62
2022/11/08 07:10:23;;;;;;;5.43;2.55;;;;;;;11.66;72.35;100338.06;3576682;40;20392;-61
2022/11/08 07:13:10;;;;;;;3.20;2.10;;;;;;;11.67;71.70;100350.59;3577569;40;20056;-61
2022/11/08 07:15:37;;;;;;;5.50;2.05;;;;;;;11.52;72.22;100322.09;3578454;40;20096;-61
2022/11/08 07:18:05;;;;;;;4.82;2.20;;;;;;;11.20;72.00;100260.75;3577124;40;20169;-62
2022/11/08 07:20:33;;;;;;;7.38;2.53;;;;;;;11.72;72.22;100348.41;3577181;40;20095;-62
2022/11/08 07:22:59;;;;;;;5.45;2.35;;;;;;;11.73;71.64;100344.72;3580037;40;20348;-61
2022/11/08 07:25:27;;;;;;;6.63;2.58;;;;;;;11.74;71.63;100349.16;3577668;40;20052;-61
2022/11/08 07:28:04;;;;;;;4.70;2.35;;;;;;;11.75;71.67;100337.41;3577956;40;20044;-61
2022/11/08 07:30:32;;;;;;;7.43;2.20;;;;;;;11.77;71.29;100345.38;3575304;40;20056;-61
2022/11/08 07:32:58;;;;;;;5.72;2.13;;;;;;;11.79;71.24;100338.88;3578800;40;20060;-61
2022/11/08 07:35:26;;;;;;;3.97;2.10;;;;;;;11.81;70.92;100342.31;3579448;40;20061;-61
2022/11/08 07:37:53;;;;;;;4.68;2.50;;;;;;;11.87;71.00;100337.50;3577422;40;20056;-61
2022/11/08 07:40:19;;;;;;;5.55;2.30;;;;;;;11.90;70.63;100332.75;3577799;40;20096;-61
2022/11/08 07:42:44;;;;;;;4.15;2.40;;;;;;;11.98;70.17;100326.75;3578565;40;20445;-61
2022/11/08 07:45:10;;;;;;;7.20;2.33;;;;;;;12.06;70.60;100330.59;3578183;40;20061;-61
2022/11/08 07:47:36;;;;;;;3.65;2.00;;;;;;;12.13;70.14;100330.97;3578116;40;20373;-61
2022/11/08 07:50:03;;;;;;;4.45;2.08;;;;;;;12.25;69.21;100327.34;3579341;40;20059;-63
2022/11/08 07:52:29;;;;;;;3.80;1.90;;;;;;;12.36;69.14;100325.66;3576596;40;20108;-61
2022/11/08 07:54:54;;;;;;;3.67;1.58;;;;;;;12.45;68.05;100323.13;3575190;40;20045;-61
2022/11/08 07:57:20;;;;;;;3.80;1.77;;;;;;;12.55;67.69;100325.94;3574419;40;20059;-62
2022/11/08 07:59:45;;;;;;;2.35;1.30;;;;;;;12.62;67.29;100327.19;3579249;40;20082;-61
2022/11/08 08:02:13;;;;;;;4.30;1.50;;;;;;;12.76;66.31;100323.41;3576489;40;20114;-61
2022/11/08 08:04:39;;;;;;;3.67;1.85;;;;;;;12.88;66.10;100319.75;3577905;40;20048;-61
2022/11/08 08:07:06;;;;;;;2.33;1.30;;;;;;;12.97;65.24;100327.09;3575368;40;20385;-60
2022/11/08 08:09:36;;;;;;;1.90;1.48;;;;;;;13.12;64.25;100322.31;3577321;40;20417;-61
2022/11/08 08:12:02;;;;;;;4.35;1.15;;;;;;;13.22;63.80;100323.28;3575079;40;20095;-61
2022/11/08 08:14:28;;;;;;;5.72;1.20;;;;;;;13.32;63.26;100322.56;3574940;40;20334;-61
2022/11/08 08:16:54;;;;;;;3.03;1.48;;;;;;;13.44;63.29;100324.25;3576116;40;20056;-62
2022/11/08 08:19:20;;;;;;;3.40;1.40;;;;;;;13.49;62.64;100322.06;3578498;40;20132;-61
2022/11/08 08:21:45;;;;;;;1.42;1.20;;;;;;;13.57;62.32;100324.97;3578702;40;20075;-61
2022/11/08 08:24:11;;;;;;;2.90;1.40;;;;;;;13.62;62.22;100330.00;3579252;40;20168;-61
2022/11/08 08:26:37;;;;;;;1.70;1.45;;;;;;;13.67;62.52;100335.88;3578622;40;20064;-61
2022/11/08 08:29:03;;;;;;;2.17;1.27;;;;;;;13.74;62.32;100333.53;3578675;40;20063;-61
2022/11/08 08:31:28;;;;;;;2.38;1.58;;;;;;;13.80;61.72;100330.31;3578912;40;20068;-61
2022/11/08 08:33:54;;;;;;;5.55;1.95;;;;;;;13.85;61.90;100344.28;3577546;40;20056;-61
2022/11/08 08:36:20;;;;;;;2.63;1.30;;;;;;;13.87;61.30;100361.25;3578783;40;20057;-61
2022/11/08 08:38:45;;;;;;;5.20;1.50;;;;;;;13.90;60.93;100364.53;3580079;40;20060;-60
2022/11/08 08:41:11;;;;;;;1.50;1.40;;;;;;;13.97;61.16;100348.69;3578161;40;20071;-61
2022/11/08 08:43:37;;;;;;;4.07;1.30;;;;;;;14.08;60.89;100335.13;3579104;40;20056;-60
2022/11/08 08:46:05;;;;;;;3.03;1.35;;;;;;;14.22;60.18;100336.66;3579799;40;20149;-61
2022/11/08 08:48:32;;;;;;;3.53;1.48;;;;;;;14.29;59.99;100335.13;3575750;40;20057;-61
2022/11/08 08:50:58;;;;;;;4.22;1.58;;;;;;;14.34;59.59;100323.94;3576612;40;20062;-61
2022/11/08 08:53:25;;;;;;;2.88;1.30;;;;;;;14.40;59.28;100326.13;3577099;40;20315;-61
2022/11/08 08:55:51;;;;;;;2.50;1.38;;;;;;;14.47;59.64;100337.28;3577427;40;20177;-60
2022/11/08 08:58:19;;;;;;;2.72;1.40;;;;;;;14.53;59.79;100324.09;3580771;40;20044;-61
2022/11/08 09:00:45;;;;;;;3.45;1.67;;;;;;;14.50;59.67;100327.03;3580010;40;20056;-60
2022/11/08 09:03:12;;;;;;;3.78;1.50;;;;;;;14.56;59.41;100326.53;3575347;40;20367;-61
2022/11/08 09:05:45;;;;;;;2.90;1.52;;;;;;;14.63;59.63;100326.88;3580340;40;20044;-61
2022/11/08 09:08:11;;;;;;;3.55;1.70;;;;;;;14.68;58.64;100313.78;3577466;40;20057;-61
2022/11/08 09:10:37;;;;;;;3.33;1.60;;;;;;;14.80;59.00;100306.44;3580275;40;20322;-61
2022/11/08 09:13:03;;;;;;;2.17;1.70;;;;;;;14.91;58.59;100311.78;3577006;40;20056;-61
2022/11/08 09:15:29;;;;;;;3.58;1.48;;;;;;;14.91;58.16;100314.50;3576444;40;20049;-61
2022/11/08 09:17:56;;;;;;;1.40;1.27;;;;;;;14.94;58.21;100333.16;3576765;40;20078;-60
2022/11/08 09:20:22;;;;;;;2.17;1.63;;;;;;;14.92;58.45;100329.72;3576926;40;20080;-61
2022/11/08 09:22:48;;;;;;;3.08;1.50;;;;;;;14.94;58.24;100319.63;3576361;40;20059;-61
2022/11/08 09:25:14;;;;;;;4.47;2.08;;;;;;;14.93;58.92;100314.34;3567793;40;20395;-60
2022/11/08 09:27:40;;;;;;;2.40;1.63;;;;;;;14.95;58.61;100310.50;3575677;40;20087;-62
2022/11/08 09:30:07;;;;;;;2.15;1.60;;;;;;;14.97;58.82;100303.13;3575931;40;20056;-60
2022/11/08 09:32:33;;;;;;;2.90;1.95;;;;;;;14.96;57.90;100312.22;3577975;40;20086;-60
2022/11/08 09:34:59;;;;;;;4.43;1.55;;;;;;;14.93;58.45;100304.38;3576900;40;20075;-61
2022/11/08 09:37:25;;;;;;;5.22;1.63;;;;;;;14.97;58.22;100315.78;3576974;40;20106;-60
2022/11/08 09:39:51;;;;;;;6.70;1.90;;;;;;;14.88;58.79;100300.38;3577031;40;20434;-61
2022/11/08 09:42:49;;;;;;;2.38;1.45;;;;;;;15.01;58.75;100312.69;3576619;40;20117;-61
2022/11/08 09:45:38;;;;;;;3.42;1.60;;;;;;;15.08;58.35;100303.00;3577605;40;20067;-60
2022/11/08 09:48:21;;;;;;;5.55;1.98;;;;;;;15.15;57.74;100308.72;3579192;40;20062;-60
2022/11/08 09:50:52;;;;;;;2.85;1.73;;;;;;;15.27;58.21;100307.63;3575833;40;20065;-60
2022/11/08 09:53:30;;;;;;;3.95;1.80;;;;;;;15.41;57.59;100319.91;3574637;40;20388;-61
2022/11/08 09:56:06;;;;;;;1.48;1.35;;;;;;;15.53;57.34;100324.22;3576205;40;20064;-60
2022/11/08 09:58:53;;;;;;;2.53;1.60;;;;;;;15.68;56.73;100332.88;3577245;40;20484;-61
2022/11/08 10:01:21;;;;;;;2.95;1.67;;;;;;;15.84;55.79;100328.75;3574324;40;20130;-60
2022/11/08 10:03:53;;;;;;;2.80;1.70;;;;;;;16.02;55.74;100319.78;3575429;40;20061;-60
2022/11/08 10:06:32;;;;;;;4.60;2.10;;;;;;;16.25;55.33;100327.63;3575623;40;20052;-60
2022/11/08 10:09:12;;;;;;;3.33;2.00;;;;;;;16.43;54.83;100334.03;3577506;40;20337;-60
2022/11/08 10:11:57;;;;;;;3.35;1.80;;;;;;;16.52;54.11;100335.00;3576579;40;20060;-60
2022/11/08 10:15:05;;;;;;;6.03;1.90;;;;;;;16.61;54.52;100325.13;3577904;40;20071;-60
2022/11/08 10:17:59;;;;;;;4.22;1.88;;;;;;;16.62;53.01;100325.00;3578837;40;20064;-60
2022/11/08 10:20:59;;;;;;;3.40;1.60;;;;;;;16.65;54.04;100335.56;3577734;40;20608;-60
2022/11/08 10:24:00;;;;;;;2.65;1.60;;;;;;;16.63;53.38;100344.84;3571087;40;20063;-60
2022/11/08 10:26:41;;;;;;;4.78;1.70;;;;;;;16.57;53.60;100340.84;3578419;40;20662;-60
2022/11/08 10:29:18;;;;;;;3.05;1.73;;;;;;;16.59;54.66;100348.88;3578758;40;20269;-60
2022/11/08 10:31:48;;;;;;;3.60;1.90;;;;;;;16.50;54.54;100336.16;3573911;40;20092;-60
2022/11/08 10:34:23;;;;;;;3.55;1.70;;;;;;;16.41;53.98;100346.03;3575737;40;20052;-60
2022/11/08 10:36:57;;;;;;;3.38;1.48;;;;;;;16.41;54.53;100352.31;3577115;40;20064;-60
2022/11/08 10:39:28;;;;;;;2.78;1.40;;;;;;;16.34;54.51;100343.03;3577234;40;20120;-59
2022/11/08 10:42:27;;;;;;;2.97;1.70;;;;;;;16.34;54.69;100350.31;3579490;40;20067;-59
2022/11/08 10:44:53;;;;;;;3.67;1.58;;;;;;;16.27;54.58;100349.16;3577095;40;20068;-61
2022/11/08 10:47:32;;;;;;;2.67;1.60;;;;;;;16.20;54.53;100336.16;3575666;40;20782;-60
2022/11/08 10:49:58;;;;;;;1.92;1.40;;;;;;;16.27;54.36;100339.19;3577052;40;20049;-61
2022/11/08 10:52:38;;;;;;;3.15;1.67;;;;;;;16.29;54.69;100347.16;3578347;40;20139;-60
2022/11/08 10:55:22;;;;;;;3.08;1.70;;;;;;;16.31;54.56;100346.03;3578405;40;20044;-60
2022/11/08 10:57:48;;;;;;;3.47;1.30;;;;;;;16.38;54.78;100347.16;3576292;40;20111;-60
2022/11/08 11:00:19;;;;;;;3.63;1.67;;;;;;;16.43;54.64;100338.59;3576690;40;20060;-60
2022/11/08 11:03:00;;;;;;;3.67;1.50;;;;;;;16.33;54.35;100325.03;3578930;40;20044;-61
2022/11/08 11:05:32;;;;;;;3.90;1.40;;;;;;;16.40;54.54;100339.75;3577102;40;20068;-60
2022/11/08 11:08:06;;;;;;;3.00;1.45;;;;;;;16.38;54.93;100339.03;3579166;40;20105;-61
2022/11/08 11:10:36;;;;;;;2.17;1.30;;;;;;;16.37;53.99;100323.75;3581652;40;20060;-60
2022/11/08 11:13:17;;;;;;;4.07;2.10;;;;;;;16.32;54.40;100309.75;3576508;40;20335;-59
2022/11/08 11:15:54;;;;;;;3.58;1.60;;;;;;;16.30;54.39;100300.94;3577701;40;20059;-60
2022/11/08 11:18:32;;;;;;;3.22;1.70;;;;;;;16.36;54.67;100294.91;3578136;40;20061;-60
2022/11/08 11:21:13;;;;;;;3.35;1.63;;;;;;;16.39;54.43;100313.59;3578520;40;20133;-59
2022/11/08 11:23:51;;;;;;;3.42;1.75;;;;;;;16.36;55.21;100303.03;3577099;40;20045;-60
2022/11/08 11:26:33;;;;;;;3.10;1.50;;;;;;;16.38;54.50;100300.19;3576355;40;20052;-60
2022/11/08 11:29:04;;;;;;;2.53;1.73;;;;;;;16.42;54.73;100297.03;3577748;40;20110;-59
2022/11/08 11:31:42;;;;;;;6.60;1.45;;;;;;;16.45;54.17;100277.75;3576418;40;20110;-60
2022/11/08 11:34:17;;;;;;;5.68;1.55;;;;;;;16.52;54.01;100277.16;3575469;40;20052;-60
2022/11/08 11:37:10;;;;;;;3.65;1.85;;;;;;;16.61;53.87;100269.00;3577326;40;20155;-60
2022/11/08 11:40:26;;;;;;;2.55;1.60;;;;;;;16.69;53.66;100293.56;3579250;40;20066;-60
2022/11/08 11:43:34;;;;;;;1.75;1.40;;;;;;;16.71;53.32;100293.38;3575152;40;20082;-60
2022/11/08 11:46:19;;;;;;;3.58;1.50;;;;;;;16.73;53.71;100283.25;3571314;40;20395;-60
2022/11/08 11:48:59;;;;;;;4.00;1.50;;;;;;;16.73;53.32;100280.53;3576891;40;20060;-60
2022/11/08 11:51:29;;;;;;;3.28;1.60;;;;;;;16.76;53.73;100287.56;3577338;40;20079;-60
2022/11/08 11:53:56;;;;;;;2.75;1.70;;;;;;;16.78;54.42;100281.00;3575010;40;20390;-60
2022/11/08 11:56:45;;;;;;;2.40;1.58;;;;;;;16.76;54.14;100285.72;3575595;40;20130;-59
2022/11/08 11:59:39;;;;;;;4.78;1.90;;;;;;;16.72;54.03;100273.41;3577177;40;20064;-59